createdAt,value
2024-02-13T00:00:35.768Z,4.10
2024-02-13T00:03:03.685Z,5.07
2024-02-13T00:05:30.803Z,5.05
2024-02-13T00:08:01.428Z,5.47
2024-02-13T00:10:31.518Z,3.85
2024-02-13T00:13:00.052Z,5.05
2024-02-13T00:15:27.255Z,3.55
2024-02-13T00:17:54.344Z,3.80
2024-02-13T00:20:22.024Z,3.75
2024-02-13T00:22:50.137Z,3.42
2024-02-13T00:25:19.845Z,2.70
2024-02-13T00:27:46.998Z,3.25
2024-02-13T00:30:15.898Z,3.30
2024-02-13T00:32:43.971Z,4.35
2024-02-13T00:35:11.379Z,2.83
2024-02-13T00:37:38.959Z,2.95
2024-02-13T00:40:11.842Z,3.10
2024-02-13T00:42:39.309Z,2.42
2024-02-13T00:45:12.772Z,2.60
2024-02-13T00:47:43.432Z,3.20
2024-02-13T00:50:10.945Z,2.20
2024-02-13T00:52:43.631Z,1.83
2024-02-13T00:55:11.058Z,2.35
2024-02-13T00:57:38.246Z,1.98
2024-02-13T01:00:07.557Z,2.15
2024-02-13T01:02:35.718Z,1.65
2024-02-13T01:05:03.022Z,1.85
2024-02-13T01:07:32.390Z,1.25
2024-02-13T01:09:59.402Z,1.23
2024-02-13T01:12:26.402Z,1.88
2024-02-13T01:14:53.951Z,1.20
2024-02-13T01:17:21.175Z,1.30
2024-02-13T01:19:48.589Z,1.85
2024-02-13T01:22:15.939Z,1.75
2024-02-13T01:24:42.994Z,1.75
2024-02-13T01:27:09.976Z,1.13
2024-02-13T01:29:37.822Z,1.42
2024-02-13T01:32:05.717Z,2.15
2024-02-13T01:34:32.869Z,1.20
2024-02-13T01:36:59.875Z,1.30
2024-02-13T01:39:26.953Z,1.70
2024-02-13T01:41:55.304Z,1.13
2024-02-13T01:44:22.415Z,1.23
2024-02-13T01:46:53.797Z,1.52
2024-02-13T01:49:22.315Z,1.25
2024-02-13T01:51:52.678Z,1.60
2024-02-13T01:54:20.188Z,1.25
2024-02-13T01:56:51.128Z,1.63
2024-02-13T01:59:18.580Z,1.00
2024-02-13T02:01:45.955Z,1.23
2024-02-13T02:04:13.334Z,1.60
2024-02-13T02:06:43.038Z,1.27
2024-02-13T02:09:10.545Z,2.03
2024-02-13T02:11:38.054Z,1.67
2024-02-13T02:14:07.361Z,1.55
2024-02-13T02:16:34.572Z,1.98
2024-02-13T02:19:02.041Z,1.48
2024-02-13T02:21:29.093Z,1.30
2024-02-13T02:23:56.464Z,1.70
2024-02-13T02:26:23.655Z,1.48
2024-02-13T02:28:50.771Z,1.25
2024-02-13T02:31:17.787Z,1.17
2024-02-13T02:33:48.205Z,1.13
2024-02-13T02:36:15.372Z,1.10
2024-02-13T02:38:43.228Z,0.93
2024-02-13T02:41:10.447Z,1.33
2024-02-13T02:43:39.190Z,1.48
2024-02-13T02:46:06.795Z,1.92
2024-02-13T02:48:34.696Z,1.33
2024-02-13T02:51:02.256Z,1.98
2024-02-13T02:53:29.384Z,0.85
2024-02-13T02:55:56.480Z,1.50
2024-02-13T02:58:23.499Z,0.95
2024-02-13T03:00:52.109Z,1.95
2024-02-13T03:03:23.091Z,1.70
2024-02-13T03:05:52.028Z,2.05
2024-02-13T03:08:19.211Z,2.35
2024-02-13T03:10:46.327Z,1.77
2024-02-13T03:13:14.968Z,1.15
2024-02-13T03:15:42.151Z,1.25
2024-02-13T03:18:13.184Z,1.63
2024-02-13T03:20:41.335Z,1.58
2024-02-13T03:23:08.412Z,1.20
2024-02-13T03:25:35.418Z,0.82
2024-02-13T03:28:03.886Z,1.58
2024-02-13T03:30:31.374Z,1.60
2024-02-13T03:32:58.605Z,1.90
2024-02-13T03:35:25.994Z,0.80
2024-02-13T03:37:53.125Z,0.80
2024-02-13T03:40:20.255Z,0.85
2024-02-13T03:42:47.261Z,2.17
2024-02-13T03:45:14.746Z,2.03
2024-02-13T03:47:41.912Z,2.10
2024-02-13T03:50:09.409Z,1.55
2024-02-13T03:52:37.625Z,1.70
2024-02-13T03:55:07.323Z,1.00
2024-02-13T03:57:37.315Z,2.45
2024-02-13T04:00:08.924Z,2.78
2024-02-13T04:02:36.300Z,2.22
2024-02-13T04:05:03.456Z,1.35
2024-02-13T04:07:30.527Z,1.98
2024-02-13T04:09:57.517Z,1.80
2024-02-13T04:12:24.489Z,1.77
2024-02-13T04:14:51.762Z,1.73
2024-02-13T04:17:19.624Z,1.70
2024-02-13T04:19:46.739Z,2.00
2024-02-13T04:22:13.730Z,1.15
2024-02-13T04:24:40.721Z,1.85
2024-02-13T04:27:07.749Z,1.33
2024-02-13T04:29:34.958Z,1.95
2024-02-13T04:32:03.006Z,1.17
2024-02-13T04:34:32.466Z,1.40
2024-02-13T04:37:01.660Z,1.25
2024-02-13T04:39:28.649Z,1.10
2024-02-13T04:41:55.643Z,2.33
2024-02-13T04:44:22.695Z,1.38
2024-02-13T04:46:49.703Z,1.52
2024-02-13T04:49:16.806Z,2.28
2024-02-13T04:51:44.766Z,2.00
2024-02-13T04:54:11.994Z,1.38
2024-02-13T04:56:39.029Z,2.15
2024-02-13T04:59:09.107Z,1.40
2024-02-13T05:01:41.215Z,0.93
2024-02-13T05:04:18.032Z,1.10
2024-02-13T05:07:03.790Z,1.20
2024-02-13T05:09:30.843Z,0.85
2024-02-13T05:11:57.978Z,2.03
2024-02-13T05:14:25.400Z,1.27
2024-02-13T05:16:52.545Z,1.38
2024-02-13T05:19:20.317Z,0.80
2024-02-13T05:21:47.414Z,1.08
2024-02-13T05:24:14.414Z,0.90
2024-02-13T05:26:42.206Z,1.35
2024-02-13T05:29:09.367Z,1.30
2024-02-13T05:31:37.294Z,1.20
2024-02-13T05:34:04.916Z,0.85
2024-02-13T05:36:31.968Z,0.80
2024-02-13T05:38:58.961Z,2.22
2024-02-13T05:41:25.957Z,0.93
2024-02-13T05:43:53.945Z,1.00
2024-02-13T05:46:21.897Z,1.05
2024-02-13T05:48:50.817Z,1.77
2024-02-13T05:51:18.083Z,0.98
2024-02-13T05:53:45.547Z,0.80
2024-02-13T05:56:20.081Z,0.93
2024-02-13T05:58:53.483Z,0.93
2024-02-13T06:01:20.657Z,2.10
2024-02-13T06:03:47.894Z,1.65
2024-02-13T06:06:16.217Z,2.08
2024-02-13T06:08:43.502Z,0.80
2024-02-13T06:11:10.523Z,1.10
2024-02-13T06:13:41.607Z,1.35
2024-02-13T06:16:09.184Z,0.63
2024-02-13T06:18:36.353Z,0.60
2024-02-13T06:21:03.574Z,0.75
2024-02-13T06:23:31.523Z,1.70
2024-02-13T06:26:00.065Z,2.35
2024-02-13T06:28:27.021Z,2.65
2024-02-13T06:30:54.012Z,2.75
2024-02-13T06:33:21.155Z,3.28
2024-02-13T06:35:48.197Z,1.35
2024-02-13T06:38:15.208Z,1.90
2024-02-13T06:40:43.743Z,1.45
2024-02-13T06:43:12.121Z,1.58
2024-02-13T06:45:40.205Z,1.25
2024-02-13T06:48:08.448Z,1.05
2024-02-13T06:50:35.717Z,0.90
2024-02-13T06:53:02.869Z,1.63
2024-02-13T06:55:29.835Z,1.52
2024-02-13T06:57:56.842Z,1.80
2024-02-13T07:00:27.246Z,1.83
2024-02-13T07:02:56.440Z,1.33
2024-02-13T07:05:24.306Z,1.15
2024-02-13T07:07:51.655Z,1.60
2024-02-13T07:10:19.172Z,1.75
2024-02-13T07:12:46.272Z,2.33
2024-02-13T07:15:13.870Z,1.48
2024-02-13T07:17:52.482Z,1.42
2024-02-13T07:20:25.175Z,1.25
2024-02-13T07:22:52.546Z,1.40
2024-02-13T07:25:19.753Z,1.65
2024-02-13T07:27:50.467Z,1.52
2024-02-13T07:30:17.786Z,1.98
2024-02-13T07:32:47.816Z,1.98
2024-02-13T07:35:16.346Z,1.35
2024-02-13T07:37:43.621Z,1.35
2024-02-13T07:40:14.567Z,1.23
2024-02-13T07:42:41.832Z,0.93
2024-02-13T07:45:09.926Z,1.27
2024-02-13T07:47:37.002Z,1.70
2024-02-13T07:50:04.501Z,1.17
2024-02-13T07:52:31.545Z,1.17
2024-02-13T07:54:59.715Z,1.83
2024-02-13T07:57:28.117Z,1.63
2024-02-13T07:59:56.400Z,2.25
2024-02-13T08:02:25.162Z,2.47
2024-02-13T08:04:53.675Z,1.90
2024-02-13T08:07:21.136Z,2.10
2024-02-13T08:09:48.820Z,3.58
2024-02-13T08:12:17.154Z,7.65
2024-02-13T08:14:44.798Z,8.80
2024-02-13T08:17:12.750Z,6.72
2024-02-13T08:19:42.252Z,6.43
2024-02-13T08:22:09.936Z,13.32
2024-02-13T08:24:37.497Z,8.63
2024-02-13T08:27:07.310Z,7.55
2024-02-13T08:29:34.906Z,12.35
2024-02-13T08:32:05.323Z,11.40
2024-02-13T08:34:32.628Z,8.15
2024-02-13T08:37:00.132Z,6.97
2024-02-13T08:39:27.202Z,5.70
2024-02-13T08:41:54.383Z,6.43
2024-02-13T08:44:22.838Z,5.75
2024-02-13T08:46:50.545Z,5.07
2024-02-13T08:49:18.434Z,4.88
2024-02-13T08:51:46.589Z,6.72
2024-02-13T08:54:14.193Z,4.50
2024-02-13T08:56:41.738Z,4.93
2024-02-13T08:59:12.098Z,5.90
2024-02-13T09:01:39.411Z,5.35
2024-02-13T09:04:06.550Z,4.32
2024-02-13T09:06:34.280Z,4.53
2024-02-13T09:09:03.519Z,2.50
2024-02-13T09:11:33.129Z,2.17
2024-02-13T09:14:00.970Z,2.47
2024-02-13T09:16:28.134Z,1.85
2024-02-13T09:18:57.583Z,2.05
2024-02-13T09:21:25.710Z,1.75
2024-02-13T09:23:53.652Z,1.95
2024-02-13T09:26:21.679Z,2.25
2024-02-13T09:28:48.936Z,2.40
2024-02-13T09:31:17.602Z,2.42
2024-02-13T09:33:45.667Z,1.55
2024-02-13T09:36:16.113Z,2.03
2024-02-13T09:38:43.835Z,1.80
2024-02-13T09:41:13.746Z,1.20
2024-02-13T09:43:44.953Z,2.20
2024-02-13T09:46:18.144Z,2.30
2024-02-13T09:48:49.861Z,2.10
2024-02-13T09:51:20.844Z,1.80
2024-02-13T09:53:49.688Z,2.03
2024-02-13T09:56:18.325Z,2.10
2024-02-13T09:58:49.911Z,1.45
2024-02-13T10:01:17.149Z,1.35
2024-02-13T10:03:45.399Z,1.08
2024-02-13T10:06:13.239Z,1.23
2024-02-13T10:08:41.694Z,1.00
2024-02-13T10:11:13.196Z,1.35
2024-02-13T10:13:45.543Z,1.58
2024-02-13T10:16:25.554Z,1.90
2024-02-13T10:19:02.888Z,2.55
2024-02-13T10:21:33.119Z,1.65
2024-02-13T10:24:13.496Z,1.13
2024-02-13T10:26:40.908Z,1.20
2024-02-13T10:29:09.116Z,1.27
2024-02-13T10:31:38.357Z,0.90
2024-02-13T10:34:08.951Z,1.08
2024-02-13T10:36:46.651Z,1.17
2024-02-13T10:39:16.136Z,1.23
2024-02-13T10:41:47.521Z,1.27
2024-02-13T10:44:22.912Z,1.27
2024-02-13T10:46:50.884Z,0.80
2024-02-13T10:49:35.770Z,1.45
2024-02-13T10:52:07.008Z,0.57
2024-02-13T10:54:41.313Z,0.80
2024-02-13T10:57:08.974Z,0.85
2024-02-13T10:59:38.169Z,0.43
2024-02-13T11:02:06.455Z,1.40
2024-02-13T11:04:34.611Z,1.50
2024-02-13T11:07:03.689Z,1.15
2024-02-13T11:09:31.206Z,1.13
2024-02-13T11:11:58.349Z,1.30
2024-02-13T11:14:25.964Z,1.67
2024-02-13T11:17:02.009Z,1.33
2024-02-13T11:19:57.959Z,4.70
2024-02-13T11:22:44.186Z,0.50
2024-02-13T11:25:13.731Z,3.40
2024-02-13T11:27:42.000Z,3.97
2024-02-13T11:30:09.573Z,1.88
2024-02-13T11:32:41.305Z,1.65
2024-02-13T11:35:12.410Z,0.80
2024-02-13T11:37:43.323Z,1.40
2024-02-13T11:40:16.712Z,0.63
2024-02-13T11:42:46.062Z,0.47
2024-02-13T11:45:30.065Z,1.40
2024-02-13T11:47:58.175Z,0.90
2024-02-13T11:50:25.452Z,0.95
2024-02-13T11:52:53.301Z,2.25
2024-02-13T11:55:21.012Z,1.42
2024-02-13T11:57:48.134Z,1.30
2024-02-13T12:00:20.742Z,1.23
2024-02-13T12:02:51.082Z,0.95
2024-02-13T12:05:20.939Z,0.60
2024-02-13T12:07:48.392Z,1.55
2024-02-13T12:10:16.408Z,2.25
2024-02-13T12:12:43.853Z,5.13
2024-02-13T12:15:12.115Z,1.30
2024-02-13T12:17:44.993Z,1.90
2024-02-13T12:20:20.642Z,1.15
2024-02-13T12:22:47.742Z,0.60
2024-02-13T12:25:19.687Z,1.08
2024-02-13T12:27:47.077Z,0.73
2024-02-13T12:30:15.970Z,0.40
2024-02-13T12:32:44.310Z,0.50
2024-02-13T12:35:23.680Z,0.40
2024-02-13T12:37:53.543Z,0.30
2024-02-13T12:40:27.833Z,1.05
2024-02-13T12:42:56.311Z,0.47
2024-02-13T12:45:23.426Z,0.60
2024-02-13T12:47:50.492Z,0.30
2024-02-13T12:50:18.364Z,0.52
2024-02-13T12:52:45.694Z,0.40
2024-02-13T12:55:17.219Z,0.50
2024-02-13T12:57:44.368Z,0.60
2024-02-13T13:00:16.110Z,0.50
2024-02-13T13:02:45.059Z,0.70
2024-02-13T13:05:16.000Z,1.00
2024-02-13T13:07:47.503Z,0.52
2024-02-13T13:10:21.157Z,0.40
2024-02-13T13:12:48.433Z,0.40
2024-02-13T13:15:19.931Z,1.98
2024-02-13T13:17:52.811Z,0.63
2024-02-13T13:20:20.821Z,0.38
2024-02-13T13:22:49.415Z,0.52
2024-02-13T13:25:25.638Z,0.50
2024-02-13T13:27:53.528Z,1.30
2024-02-13T13:30:21.334Z,0.63
2024-02-13T13:32:50.301Z,0.50
2024-02-13T13:35:21.656Z,0.88
2024-02-13T13:37:49.629Z,1.95
2024-02-13T13:40:18.312Z,1.15
2024-02-13T13:42:45.578Z,0.73
2024-02-13T13:45:18.634Z,0.52
2024-02-13T13:47:47.098Z,0.50
2024-02-13T13:50:24.555Z,1.35
2024-02-13T13:52:55.232Z,1.08
2024-02-13T13:55:22.207Z,1.38
2024-02-13T13:57:49.402Z,1.50
2024-02-13T14:00:22.192Z,0.75
2024-02-13T14:02:49.428Z,0.70
2024-02-13T14:05:16.606Z,2.05
2024-02-13T14:07:43.623Z,2.50
2024-02-13T14:10:14.033Z,1.38
2024-02-13T14:12:44.489Z,0.65
2024-02-13T14:15:12.556Z,0.68
2024-02-13T14:17:39.704Z,0.95
2024-02-13T14:20:07.615Z,1.30
2024-02-13T14:22:34.830Z,0.70
2024-02-13T14:25:02.148Z,1.17
2024-02-13T14:27:29.786Z,0.80
2024-02-13T14:29:57.145Z,2.15
2024-02-13T14:32:25.687Z,1.58
2024-02-13T14:34:53.398Z,0.40
2024-02-13T14:37:22.706Z,0.52
2024-02-13T14:39:49.739Z,1.02
2024-02-13T14:42:18.502Z,1.13
2024-02-13T14:44:45.552Z,0.93
2024-02-13T14:47:12.574Z,0.70
2024-02-13T14:49:40.399Z,0.50
2024-02-13T14:52:08.053Z,1.27
2024-02-13T14:54:37.277Z,0.57
2024-02-13T14:57:05.005Z,0.35
2024-02-13T14:59:33.258Z,0.88
2024-02-13T15:02:01.613Z,0.60
2024-02-13T15:04:28.663Z,0.50
2024-02-13T15:06:55.759Z,1.05
2024-02-13T15:09:22.993Z,0.98
2024-02-13T15:11:50.015Z,0.77
2024-02-13T15:14:18.847Z,1.02
2024-02-13T15:16:49.801Z,1.25
2024-02-13T15:19:16.985Z,1.00
2024-02-13T15:21:45.652Z,0.75
2024-02-13T15:24:12.963Z,1.20
2024-02-13T15:26:40.223Z,3.20
2024-02-13T15:29:11.399Z,4.03
2024-02-13T15:31:39.671Z,2.97
2024-02-13T15:34:08.581Z,2.33
2024-02-13T15:36:39.987Z,1.33
2024-02-13T15:39:25.654Z,1.42
2024-02-13T15:42:11.141Z,1.10
2024-02-13T15:44:56.712Z,1.60
2024-02-13T15:47:24.365Z,1.08
2024-02-13T15:49:51.840Z,1.30
2024-02-13T15:52:18.965Z,1.52
2024-02-13T15:54:48.970Z,3.55
2024-02-13T15:57:16.155Z,4.80
2024-02-13T15:59:44.867Z,5.38
2024-02-13T16:02:13.531Z,3.97
2024-02-13T16:04:40.646Z,1.58
2024-02-13T16:07:11.772Z,2.00
2024-02-13T16:09:38.820Z,1.92
2024-02-13T16:12:06.216Z,1.50
2024-02-13T16:14:33.547Z,1.35
2024-02-13T16:17:00.983Z,1.65
2024-02-13T16:19:31.318Z,2.40
2024-02-13T16:21:59.049Z,3.10
2024-02-13T16:24:26.146Z,2.17
2024-02-13T16:26:54.907Z,2.55
2024-02-13T16:29:24.972Z,2.67
2024-02-13T16:31:54.966Z,1.50
2024-02-13T16:34:22.733Z,1.20
2024-02-13T16:36:49.897Z,1.42
2024-02-13T16:39:19.243Z,1.40
2024-02-13T16:41:50.327Z,0.88
2024-02-13T16:44:20.279Z,1.40
2024-02-13T16:46:49.950Z,2.20
2024-02-13T16:49:17.331Z,2.75
2024-02-13T16:51:44.571Z,1.55
2024-02-13T16:54:12.095Z,2.80
2024-02-13T16:56:39.205Z,6.05
2024-02-13T16:59:06.332Z,4.47
2024-02-13T17:01:33.492Z,3.42
2024-02-13T17:04:02.410Z,3.78
2024-02-13T17:06:32.459Z,1.77
2024-02-13T17:09:02.041Z,2.05
2024-02-13T17:11:29.381Z,2.80
2024-02-13T17:13:56.611Z,2.45
2024-02-13T17:16:23.673Z,2.05
2024-02-13T17:18:50.871Z,4.63
2024-02-13T17:21:18.194Z,7.05
2024-02-13T17:23:45.242Z,6.38
2024-02-13T17:26:19.040Z,4.93
2024-02-13T17:28:47.037Z,1.70
2024-02-13T17:31:14.544Z,1.15
2024-02-13T17:33:41.854Z,1.80
2024-02-13T17:36:10.955Z,1.98
2024-02-13T17:38:39.031Z,1.67
2024-02-13T17:41:07.472Z,1.58
2024-02-13T17:43:35.678Z,1.15
2024-02-13T17:46:02.737Z,0.90
2024-02-13T17:48:29.845Z,0.95
2024-02-13T17:50:57.008Z,0.57
2024-02-13T17:53:24.229Z,0.75
2024-02-13T17:55:51.851Z,0.50
2024-02-13T17:58:18.885Z,1.13
2024-02-13T18:00:45.984Z,1.10
2024-02-13T18:03:13.670Z,1.55
2024-02-13T18:05:41.154Z,1.80
2024-02-13T18:08:08.411Z,1.52
2024-02-13T18:10:35.441Z,2.15
2024-02-13T18:13:02.510Z,1.52
2024-02-13T18:15:29.514Z,1.10
2024-02-13T18:17:57.481Z,1.90
2024-02-13T18:20:25.651Z,0.75
2024-02-13T18:22:53.048Z,2.25
2024-02-13T18:25:20.259Z,1.92
2024-02-13T18:27:47.211Z,0.90
2024-02-13T18:30:14.869Z,2.67
2024-02-13T18:32:42.811Z,3.30
2024-02-13T18:35:12.975Z,2.65
2024-02-13T18:37:42.079Z,4.15
2024-02-13T18:40:11.277Z,3.85
2024-02-13T18:42:39.561Z,3.40
2024-02-13T18:45:09.983Z,2.53
2024-02-13T18:47:37.278Z,2.85
2024-02-13T18:50:05.733Z,2.45
2024-02-13T18:52:32.693Z,3.22
2024-02-13T18:54:59.644Z,14.27
2024-02-13T18:57:26.613Z,11.85
2024-02-13T18:59:54.890Z,4.95
2024-02-13T19:02:24.967Z,6.55
2024-02-13T19:04:52.177Z,3.20
2024-02-13T19:07:19.187Z,1.77
2024-02-13T19:09:46.226Z,1.75
2024-02-13T19:12:13.246Z,2.22
2024-02-13T19:14:40.287Z,2.78
2024-02-13T19:17:07.721Z,2.10
2024-02-13T19:19:35.113Z,1.20
2024-02-13T19:22:02.190Z,0.90
2024-02-13T19:24:29.314Z,1.20
2024-02-13T19:26:58.917Z,2.00
2024-02-13T19:29:26.046Z,1.88
2024-02-13T19:31:53.094Z,1.58
2024-02-13T19:34:20.333Z,1.15
2024-02-13T19:36:47.526Z,1.55
2024-02-13T19:39:14.569Z,1.50
2024-02-13T19:41:46.353Z,2.67
2024-02-13T19:44:15.370Z,2.17
2024-02-13T19:46:44.163Z,1.60
2024-02-13T19:49:11.836Z,3.85
2024-02-13T19:51:39.583Z,2.30
2024-02-13T19:54:07.037Z,1.92
2024-02-13T19:56:34.475Z,1.67
2024-02-13T19:59:01.629Z,2.80
2024-02-13T20:01:28.644Z,4.45
2024-02-13T20:03:56.338Z,4.72
2024-02-13T20:06:24.608Z,3.60
2024-02-13T20:08:52.221Z,4.82
2024-02-13T20:11:22.174Z,3.00
2024-02-13T20:13:49.441Z,2.80
2024-02-13T20:16:16.449Z,4.47
2024-02-13T20:18:43.580Z,4.40
2024-02-13T20:21:10.878Z,3.47
2024-02-13T20:23:38.058Z,3.35
2024-02-13T20:26:05.565Z,3.30
2024-02-13T20:28:34.106Z,2.65
2024-02-13T20:31:01.052Z,2.70
2024-02-13T20:33:32.747Z,2.03
2024-02-13T20:36:01.440Z,2.70
2024-02-13T20:38:28.867Z,2.22
2024-02-13T20:40:57.324Z,3.10
2024-02-13T20:43:25.392Z,3.85
2024-02-13T20:45:52.615Z,2.50
2024-02-13T20:48:20.138Z,2.00
2024-02-13T20:50:48.032Z,1.83
2024-02-13T20:53:16.075Z,2.08
2024-02-13T20:55:43.174Z,2.35
2024-02-13T20:58:13.153Z,1.90
2024-02-13T21:00:41.533Z,1.90
2024-02-13T21:03:08.680Z,3.13
2024-02-13T21:05:37.766Z,2.92
2024-02-13T21:08:05.969Z,3.53
2024-02-13T21:10:33.350Z,2.30
2024-02-13T21:13:00.390Z,1.98
2024-02-13T21:15:27.532Z,2.40
2024-02-13T21:17:54.688Z,2.80
2024-02-13T21:20:28.925Z,2.42
2024-02-13T21:23:14.265Z,2.40
2024-02-13T21:25:43.064Z,1.92
2024-02-13T21:28:10.089Z,2.35
2024-02-13T21:30:37.441Z,2.22
2024-02-13T21:33:05.776Z,2.50
2024-02-13T21:35:34.666Z,2.97
2024-02-13T21:38:02.616Z,2.28
2024-02-13T21:40:29.729Z,2.38
2024-02-13T21:42:56.733Z,2.50
2024-02-13T21:45:28.078Z,1.88
2024-02-13T21:47:55.372Z,1.65
2024-02-13T21:50:22.542Z,2.42
2024-02-13T21:52:49.590Z,2.03
2024-02-13T21:55:16.753Z,2.35
2024-02-13T21:57:44.043Z,2.58
2024-02-13T22:00:11.970Z,2.78
2024-02-13T22:02:39.316Z,1.90
2024-02-13T22:05:07.726Z,1.92
2024-02-13T22:07:35.551Z,1.98
2024-02-13T22:10:02.679Z,2.20
2024-02-13T22:12:29.759Z,3.47
2024-02-13T22:14:56.851Z,2.17
2024-02-13T22:17:25.450Z,2.00
2024-02-13T22:19:52.622Z,2.35
2024-02-13T22:22:19.637Z,2.03
2024-02-13T22:24:51.870Z,2.30
2024-02-13T22:27:19.109Z,2.63
2024-02-13T22:29:46.183Z,3.25
2024-02-13T22:32:14.224Z,2.70
2024-02-13T22:34:41.370Z,2.80
2024-02-13T22:37:08.553Z,2.30
2024-02-13T22:39:35.494Z,2.10
2024-02-13T22:42:03.799Z,2.20
2024-02-13T22:44:31.924Z,1.83
2024-02-13T22:46:59.064Z,2.13
2024-02-13T22:49:26.034Z,3.00
2024-02-13T22:51:53.342Z,3.03
2024-02-13T22:54:20.795Z,2.38
2024-02-13T22:56:48.908Z,1.90
2024-02-13T22:59:16.056Z,2.03
2024-02-13T23:01:43.649Z,1.83
2024-02-13T23:04:10.762Z,2.13
2024-02-13T23:06:39.414Z,2.22
2024-02-13T23:09:15.005Z,1.65
2024-02-13T23:11:42.488Z,1.80
2024-02-13T23:14:10.544Z,2.10
2024-02-13T23:16:41.836Z,1.88
2024-02-13T23:19:11.719Z,1.75
2024-02-13T23:21:39.023Z,1.73
2024-02-13T23:24:12.024Z,1.60
2024-02-13T23:26:41.776Z,2.08
2024-02-13T23:29:09.302Z,1.90
2024-02-13T23:31:39.297Z,2.03
2024-02-13T23:34:07.296Z,1.75
2024-02-13T23:36:38.011Z,2.10
2024-02-13T23:39:05.033Z,1.45
2024-02-13T23:41:32.055Z,1.70
2024-02-13T23:43:59.161Z,2.03
2024-02-13T23:46:26.593Z,1.67
2024-02-13T23:48:54.346Z,1.35
2024-02-13T23:51:21.726Z,1.70
2024-02-13T23:53:50.488Z,2.35
2024-02-13T23:56:19.159Z,1.15
2024-02-13T23:58:47.713Z,2.08
